首页
METAR-TAF:

METAR-TAF

机场 :

突尼斯-迦太基国际机场

突尼斯, 突尼斯

纬度: 36-50N, 经度: 010-14E, 海拔: 3米

当前天气观测

该预报发布于40分钟前的22:30 UTC
风速12节,风向西南
温度 8°C
湿度 87%
气压 993 hPa
能見度: 8000
散云层高于2600英尺
多云层高于4000英尺
小雨

METAR: DTTA 232230Z 22012KT 8000 -RA SCT026 BKN040 08/06 Q0993 NOSIG

时间: 00:10 (23:10 UTC)

预报

该预报发布于6小时和10分钟前的17:00 UTC
预报有效从23日的 18点(UTC)到 24日的 18点(UTC)
风速12节,风向西转西南
能见度10公里或以上
散云层高于2600英尺
几率 30% :
短暂存在
从 23日的 18点(UTC)到 24日的 12点(UTC)
风速25节,风向西转西南
能見度: 3000
散云层高于2600英尺, 塔状积云.
小阵雨
成为
从 24日的 01点(UTC)到 24日的 03点(UTC)
风速20节,风向西

TAF: DTTA 231700Z 2318/2418 24012KT 9999 SCT026 PROB30 TEMPO 2318/2412 25025KT 3000 -SHRA SCT026TCU BECMG 2401/2403 26020KT

超过4000个机场的气象观测和天气预报(METAR&TAF报告)。

可查询的气象台以黄色和红色小点在地图上表示。

将鼠标移到小点上方,可查看气象台名称。

然后点击查看天气观测和预报。

如需切换地图:点击带黑十字的绿色按钮放大地图;点击带横线的绿色按钮缩小地图;或者点击绿色箭头查看邻近地区的地图。


METAR-TAF: